Home > Products > Valid Products > MTR

000
SAUS46 KPDT 161056
MTRMEH
METAR KMEH 161056Z AUTO 00000KT 10SM FEW120 06/02 A2997 RMK AO2
SLP130 T00610017 $





000
SAUS46 KPDT 161000
MTRMEH
METAR KMEH 160956Z AUTO 00000KT 10SM FEW110 07/02 A2998 RMK AO2
SLP131 T00670017 $





000
SAUS46 KPDT 160856
MTRMEH
METAR KMEH 160856Z AUTO 00000KT 10SM CLR 07/02 A2999 RMK AO2 SLP131
T00720017 56001 $





000
SAUS46 KPDT 160800
MTRMEH
METAR KMEH 160756Z AUTO 00000KT 10SM CLR 08/02 A2999 RMK AO2 SLP131
T00780017 403060006 $





000
SAUS46 KPDT 160656
MTRMEH
METAR KMEH 160656Z AUTO 00000KT 10SM CLR 09/02 A2998 RMK AO2 SLP129
T00940022 $





000
SAUS46 KPDT 160556
MTRMEH
METAR KMEH 160556Z AUTO 00000KT 10SM FEW120 10/02 A2999 RMK AO2
SLP132 T01000022 10239 20094 53001 $





000
SAUS46 KPDT 160500
MTRMEH
METAR KMEH 160456Z AUTO 00000KT 10SM CLR 11/02 A2998 RMK AO2 SLP133
T01060022 $





000
SAUS46 KPDT 160357
MTRMEH
METAR KMEH 160356Z AUTO 00000KT 10SM CLR 13/03 A2998 RMK AO2 SLP143
T01280028 $





000
SAUS46 KPDT 160256
MTRMEH
METAR KMEH 160256Z AUTO 00000KT 10SM CLR 16/02 A2999 RMK AO2 SLP152
T01560022 55002 $





000
SAUS46 KPDT 160157
MTRMEH
METAR KMEH 160156Z AUTO 00000KT 10SM CLR 19/02 A2998 RMK AO2 SLP150
T01940017 $





000
SAUS46 KPDT 160056
MTRMEH
METAR KMEH 160056Z AUTO 00000KT 10SM CLR 22/01 A2999 RMK AO2 SLP150
T02220006 $





000
SAUS46 KPDT 160000 COR
MTRMEH
METAR KMEH 152356Z AUTO VRB04KT 10SM CLR 24/00 A2999 RMK AO2 SLP147
T02390000 10306 20239 53002 $





000
SAUS46 KPDT 152357 COR
MTRMEH
METAR KMEH 152356Z AUTO VRB04KT 10SM CLR 24/00 A2999 RMK AO2 SLP147
T02390000 10306 20239 53002 $





000
SAUS46 KPDT 152256
MTRMEH
METAR KMEH 152256Z AUTO 10SM CLR 27/M01 A2998 RMK AO2 SLP139
T02671011 $





000
SAUS46 KPDT 152156
MTRMEH
METAR KMEH 152156Z AUTO VRB05KT 10SM CLR 29/M01 A2998 RMK AO2 SLP135
T02891006 $





000
SAUS46 KPDT 152056
MTRMEH
METAR KMEH 152056Z AUTO VRB05KT 10SM CLR 29/M01 A2999 RMK AO2 SLP136
T02941006 58014 $





000
SAUS46 KPDT 152002 COR
MTRMEH
METAR KMEH 151956Z AUTO VRB03KT 10SM CLR 29/M02 A3000 RMK AO2 SLP142
T02891017 $





000
SAUS46 KPDT 151856
MTRMEH
METAR KMEH 151856Z AUTO 00000KT 10SM CLR 28/M01 A3002 RMK AO2 SLP147
T02831011 $





000
SAUS46 KPDT 151800
MTRMEH
METAR KMEH 151756Z AUTO 00000KT 10SM CLR 26/01 A3003 RMK AO2 SLP152
T02610006 10261 20006 57005 $





000
SAUS46 KPDT 151656
MTRMEH
METAR KMEH 151656Z AUTO VRB04KT 10SM CLR 21/M01 A3004 RMK AO2 SLP159
T02111006 $





000
SAUS46 KPDT 151556
MTRMEH
METAR KMEH 151556Z AUTO 00000KT 10SM CLR 12/03 A3005 RMK AO2 SLP169
T01220028 $





000
SAUS46 KPDT 151456
MTRMEH
METAR KMEH 151456Z AUTO 00000KT 10SM CLR 04/M01 A3005 RMK AO2 SLP176
T00441006 51001 $





000
SAUS46 KPDT 151356
MTRMEH
METAR KMEH 151356Z AUTO 00000KT 10SM CLR 01/M02 A3005 RMK AO2 SLP176
T00061022 FZRANO $





000
SAUS46 KPDT 151256
MTRMEH
METAR KMEH 151256Z AUTO 00000KT 10SM CLR 01/M02 A3005 RMK AO2 SLP170
T00061022 FZRANO $





000
SAUS46 KPDT 151156
MTRMEH
METAR KMEH 151156Z AUTO 00000KT 10SM CLR 01/M02 A3005 RMK AO2 SLP165
T00111022 10061 20011 55002





000
SAUS46 KPDT 151056
MTRMEH
METAR KMEH 151056Z AUTO 00000KT 10SM CLR 01/M02 A3004 RMK AO2 SLP164
T00111022





000
SAUS46 KPDT 150956
MTRMEH
METAR KMEH 150956Z AUTO 00000KT 10SM CLR 02/M02 A3005 RMK AO2 SLP164
T00221017





000
SAUS46 KPDT 150856
MTRMEH
METAR KMEH 150856Z AUTO 00000KT 10SM CLR 03/M02 A3005 RMK AO2 SLP165
T00281017 53003





000
SAUS46 KPDT 150757
MTRMEH
METAR KMEH 150756Z AUTO 00000KT 10SM CLR 03/M01 A3005 RMK AO2 SLP162
T00331011 402561028





000
SAUS46 KPDT 150656
MTRMEH
METAR KMEH 150656Z AUTO 00000KT 10SM CLR 04/M01 A3004 RMK AO2 SLP161
T00441011





000
SAUS46 KPDT 150556
MTRMEH
METAR KMEH 150556Z AUTO 00000KT 10SM CLR 06/M01 A3004 RMK AO2 SLP161
T00611006 10239 20061 50004





000
SAUS46 KPDT 150456
MTRMEH
METAR KMEH 150456Z AUTO 00000KT 10SM CLR 08/00 A3004 RMK AO2 SLP163
T00780000





000
SAUS46 KPDT 150356
MTRMEH
METAR KMEH 150356Z AUTO 00000KT 10SM CLR 10/01 A3004 RMK AO2 SLP170
T01000006





000
SAUS46 KPDT 150256
MTRMEH
METAR KMEH 150256Z AUTO 00000KT 10SM CLR 13/M01 A3003 RMK AO2 SLP173
T01331006 53003





000
SAUS46 KPDT 150156
MTRMEH
METAR KMEH 150156Z AUTO 00000KT 10SM CLR 18/M02 A3002 RMK AO2 SLP170
T01781017





000
SAUS46 KPDT 150056
MTRMEH
METAR KMEH 150056Z AUTO VRB04KT 10SM CLR 22/M03 A3002 RMK AO2 SLP163
T02221028





000
SAUS46 KPDT 142356
MTRMEH
METAR KMEH 142356Z AUTO VRB03KT 10SM CLR 24/M03 A3002 RMK AO2 SLP160
T02391033 10256 20217 56003





000
SAUS46 KPDT 142257
MTRMEH
METAR KMEH 142256Z AUTO 05006KT 10SM CLR 24/M03 A3002 RMK AO2 SLP161
T02441028





000
SAUS46 KPDT 142157
MTRMEH
METAR KMEH 142156Z AUTO 10SM CLR 24/M02 A3002 RMK AO2 SLP161
T02441022





000
SAUS46 KPDT 142056
MTRMEH
METAR KMEH 142056Z AUTO VRB03KT 10SM CLR 24/M03 A3003 RMK AO2 SLP163
T02441028 56004





000
SAUS46 KPDT 141956
MTRMEH
METAR KMEH 141956Z AUTO VRB03KT 10SM CLR 25/M03 A3003 RMK AO2 SLP160
T02501033





000
SAUS46 KPDT 141857
MTRMEH
METAR KMEH 141856Z AUTO 03004KT 10SM CLR 23/M03 A3004 RMK AO2 SLP162
T02331028





000
SAUS46 KPDT 141756
MTRMEH
METAR KMEH 141756Z AUTO 09003KT 10SM CLR 22/M03 A3004 RMK AO2 SLP165
T02171028 10217 21028 52001





000
SAUS46 KPDT 141656
MTRMEH
METAR KMEH 141656Z AUTO 00000KT 10SM CLR 19/M03 A3004 RMK AO2 SLP165
T01891028





000
SAUS46 KPDT 141556
MTRMEH
METAR KMEH 141556Z AUTO 00000KT 10SM CLR 09/M01 A3004 RMK AO2 SLP174
T00941011





000
SAUS46 KPDT 141456
MTRMEH
METAR KMEH 141456Z AUTO 00000KT 10SM CLR 01/M04 A3004 RMK AO2 SLP181
T00061039 51006





000
SAUS46 KPDT 141357
MTRMEH
METAR KMEH 141356Z AUTO 00000KT 10SM CLR M03/M06 A3004 RMK AO2
SLP179 T10281056





000
SAUS46 KPDT 141256
MTRMEH
METAR KMEH 141256Z AUTO 00000KT 10SM CLR M03/M06 A3003 RMK AO2
SLP170 T10281056





000
SAUS46 KPDT 141156
MTRMEH
METAR KMEH 141156Z AUTO 00000KT 10SM CLR M02/M06 A3002 RMK AO2
SLP165 T10221056 10028 21022 50004





000
SAUS46 KPDT 141057
MTRMEH
METAR KMEH 141056Z AUTO 00000KT 10SM CLR M02/M06 A3002 RMK AO2
SLP165 T10221056





000
SAUS46 KPDT 140956
MTRMEH
METAR KMEH 140956Z AUTO 00000KT 10SM CLR M02/M05 A3001 RMK AO2
SLP160 T10171050





000
SAUS46 KPDT 140856
MTRMEH
METAR KMEH 140856Z AUTO 00000KT 10SM CLR M01/M05 A3001 RMK AO2
SLP157 T10111050 50001





000
SAUS46 KPDT 140757
MTRMEH
METAR KMEH 140756Z AUTO 00000KT 10SM CLR 00/M04 A3001 RMK AO2 SLP157
T00001044 402281028





000
SAUS46 KPDT 140656
MTRMEH
METAR KMEH 140656Z AUTO 00000KT 10SM CLR 02/M04 A3001 RMK AO2 SLP153
T00171039





000
SAUS46 KPDT 140558
MTRMEH
METAR KMEH 140556Z AUTO 00000KT 10SM CLR 03/M03 A3000 RMK AO2 SLP155
T00281033 10200 20028 50002





000
SAUS46 KPDT 140456
MTRMEH
METAR KMEH 140456Z AUTO 00000KT 10SM CLR 05/M02 A3001 RMK AO2 SLP155
T00501022





000
SAUS46 KPDT 140356
MTRMEH
METAR KMEH 140356Z AUTO 00000KT 10SM CLR 07/M02 A3000 RMK AO2 SLP161
T00721017





000
SAUS46 KPDT 140258
MTRMEH
METAR KMEH 140256Z AUTO 00000KT 10SM CLR 11/M03 A3000 RMK AO2 SLP166
T01061033 55000





000
SAUS46 KPDT 140156
MTRMEH
METAR KMEH 140156Z AUTO 00000KT 10SM CLR 15/M04 A2999 RMK AO2 SLP163
T01501039





000
SAUS46 KPDT 140056
MTRMEH
METAR KMEH 140056Z AUTO 00000KT 10SM CLR 19/M04 A2999 RMK AO2 SLP158
T01891039





000
SAUS46 KPDT 132356
MTRMEH
METAR KMEH 132356Z AUTO 00000KT 10SM CLR 20/M04 A3000 RMK AO2 SLP158
T02001044 10228 20194 56006





000
SAUS46 KPDT 132256
MTRMEH
METAR KMEH 132256Z AUTO 00000KT 10SM CLR 21/M04 A3000 RMK AO2 SLP158
T02111044





000
SAUS46 KPDT 132200 COR
MTRMEH
METAR KMEH 132156Z AUTO VRB05KT 10SM CLR 21/M03 A3000 RMK AO2 SLP157
T02111033





000
SAUS46 KPDT 132157 COR
MTRMEH
METAR KMEH 132156Z AUTO VRB05KT 10SM CLR 21/M03 A3000 RMK AO2 SLP157
T02111033





000
SAUS46 KPDT 132156
MTRMEH
METAR KMEH 132156Z AUTO VRB05KT 10SM CLR 21/M03 A3000 RMK AO2 SLP157
T02111033





000
SAUS46 KPDT 132100 COR
MTRMEH
METAR KMEH 132056Z AUTO VRB03KT 10SM CLR 22/M02 A3002 RMK AO2 SLP161
T02171022 56009





000
SAUS46 KPDT 132057 COR
MTRMEH
METAR KMEH 132056Z AUTO VRB03KT 10SM CLR 22/M02 A3002 RMK AO2 SLP161
T02171022 56009





000
SAUS46 KPDT 131956
MTRMEH
METAR KMEH 131956Z AUTO VRB05KT 10SM CLR 22/M02 A3002 RMK AO2 SLP160
T02221017





000
SAUS46 KPDT 131858
MTRMEH
METAR KMEH 131856Z AUTO VRB05KT 10SM CLR 22/M03 A3003 RMK AO2 SLP162
T02221028





000
SAUS46 KPDT 131756
MTRMEH
METAR KMEH 131756Z AUTO 00000KT 10SM CLR 19/M03 A3005 RMK AO2 SLP169
T01941033 10194 21028 56005





000
SAUS46 KPDT 131656
MTRMEH
METAR KMEH 131656Z AUTO VRB03KT 10SM CLR 17/M04 A3005 RMK AO2 SLP171
T01671044





000
SAUS46 KPDT 131557
MTRMEH
METAR KMEH 131556Z AUTO 00000KT 10SM CLR 09/M01 A3006 RMK AO2 SLP180
T00941011





000
SAUS46 KPDT 131456
MTRMEH
METAR KMEH 131456Z AUTO 00000KT 10SM CLR 01/M03 A3006 RMK AO2 SLP189
T00111033 58001





000
SAUS46 KPDT 131356
MTRMEH
METAR KMEH 131356Z AUTO 00000KT 10SM CLR M02/M05 A3007 RMK AO2
SLP190 T10221050





000
SAUS46 KPDT 131256
MTRMEH
METAR KMEH 131256Z AUTO 00000KT 10SM CLR M02/M05 A3007 RMK AO2
SLP186 T10221050





000
SAUS46 KPDT 131200 COR
MTRMEH
METAR KMEH 131156Z AUTO 00000KT 10SM CLR M02/M05 A3007 RMK AO2
SLP181 T10221050 10033 21022 55001





000
SAUS46 KPDT 131158 COR
MTRMEH
METAR KMEH 131156Z AUTO 00000KT 10SM CLR M02/M05 A3007 RMK AO2
SLP181 T10221050 10033 21022 55001





000
SAUS46 KPDT 131157 COR
MTRMEH
METAR KMEH 131156Z AUTO 00000KT 10SM CLR M02/M05 A3007 RMK AO2
SLP181 T10221050 10033 21022 55001





    US Dept of Commerce
    National Oceanic and Atmospheric Administration
    National Weather Service
    1325 East West Highway
    Silver Spring, MD 20910
    Page Author: NWS Internet Services Team
Disclaimer
Information Quality
Credits
Glossary
Privacy Policy
Freedom of Information Act (FOIA)
About Us
Career Opportunities